createdAt,value
2019-02-12T00:00:13.825Z,1.52
2019-02-12T00:02:42.008Z,3.22
2019-02-12T00:05:10.199Z,1.27
2019-02-12T00:07:38.383Z,1.72
2019-02-12T00:10:06.950Z,2.20
2019-02-12T00:12:35.141Z,1.62
2019-02-12T00:15:03.712Z,1.37
2019-02-12T00:17:31.919Z,2.40
2019-02-12T00:20:00.144Z,2.42
2019-02-12T00:22:28.412Z,2.90
2019-02-12T00:24:56.591Z,3.42
2019-02-12T00:27:24.785Z,2.02
2019-02-12T00:29:52.966Z,0.90
2019-02-12T00:32:21.162Z,2.02
2019-02-12T00:34:49.343Z,1.02
2019-02-12T00:37:17.541Z,2.27
2019-02-12T00:39:45.728Z,2.45
2019-02-12T00:42:13.947Z,0.90
2019-02-12T00:44:42.126Z,0.95
2019-02-12T00:47:10.328Z,1.37
2019-02-12T00:49:38.516Z,1.57
2019-02-12T00:52:06.735Z,1.67
2019-02-12T00:54:34.944Z,0.70
2019-02-12T00:57:03.139Z,1.70
2019-02-12T00:59:31.328Z,0.90
2019-02-12T01:01:59.520Z,1.15
2019-02-12T01:04:27.724Z,2.08
2019-02-12T01:06:55.921Z,0.70
2019-02-12T01:09:24.127Z,0.80
2019-02-12T01:11:52.322Z,0.70
2019-02-12T01:14:20.501Z,3.45
2019-02-12T01:16:48.708Z,0.90
2019-02-12T01:19:16.895Z,0.70
2019-02-12T01:21:45.112Z,2.15
2019-02-12T01:24:13.296Z,1.87
2019-02-12T01:26:41.492Z,0.70
2019-02-12T01:29:09.680Z,0.90
2019-02-12T01:31:37.874Z,0.90
2019-02-12T01:34:06.081Z,1.02
2019-02-12T01:36:34.272Z,0.80
2019-02-12T01:39:02.462Z,1.20
2019-02-12T01:41:30.680Z,1.12
2019-02-12T01:43:58.909Z,0.80
2019-02-12T01:46:27.123Z,2.30
2019-02-12T01:48:55.316Z,1.10
2019-02-12T01:51:23.509Z,1.25
2019-02-12T01:53:51.687Z,1.00
2019-02-12T01:56:19.893Z,0.70
2019-02-12T01:58:48.076Z,1.35
2019-02-12T02:01:16.259Z,0.70
2019-02-12T02:03:44.462Z,1.90
2019-02-12T02:06:12.644Z,1.30
2019-02-12T02:08:40.857Z,1.65
2019-02-12T02:11:09.031Z,0.90
2019-02-12T02:13:37.222Z,1.02
2019-02-12T02:16:05.428Z,1.72
2019-02-12T02:18:33.674Z,1.80
2019-02-12T02:21:01.832Z,1.65
2019-02-12T02:23:30.025Z,0.90
2019-02-12T02:25:58.208Z,1.57
2019-02-12T02:28:26.401Z,0.70
2019-02-12T02:30:54.579Z,0.80
2019-02-12T02:33:22.803Z,0.80
2019-02-12T02:35:50.984Z,3.20
2019-02-12T02:38:19.176Z,0.80
2019-02-12T02:40:47.362Z,3.05
2019-02-12T02:43:15.562Z,5.37
2019-02-12T02:45:43.770Z,1.27
2019-02-12T02:48:11.966Z,3.25
2019-02-12T02:50:40.161Z,1.25
2019-02-12T02:53:08.367Z,1.00
2019-02-12T02:55:36.542Z,1.22
2019-02-12T02:58:04.738Z,1.05
2019-02-12T03:00:32.923Z,0.70
2019-02-12T03:03:01.119Z,1.72
2019-02-12T03:05:29.314Z,1.60
2019-02-12T03:07:57.512Z,1.05
2019-02-12T03:10:25.693Z,1.12
2019-02-12T03:12:53.900Z,0.80
2019-02-12T03:15:22.083Z,1.25
2019-02-12T03:17:50.280Z,2.58
2019-02-12T03:20:18.464Z,0.70
2019-02-12T03:22:46.657Z,1.00
2019-02-12T03:25:14.836Z,1.00
2019-02-12T03:27:43.028Z,1.00
2019-02-12T03:30:12.401Z,0.62
2019-02-12T03:32:40.934Z,1.30
2019-02-12T03:35:10.220Z,0.90
2019-02-12T03:37:38.416Z,1.05
2019-02-12T03:40:09.255Z,0.90
2019-02-12T03:42:37.430Z,1.37
2019-02-12T03:45:08.272Z,0.90
2019-02-12T03:47:36.469Z,0.80
2019-02-12T03:50:07.203Z,1.00
2019-02-12T03:52:35.393Z,0.80
2019-02-12T03:55:03.600Z,1.10
2019-02-12T03:57:31.808Z,0.70
2019-02-12T04:00:00.028Z,0.70
2019-02-12T04:02:28.233Z,1.05
2019-02-12T04:04:56.426Z,2.65
2019-02-12T04:07:24.635Z,1.12
2019-02-12T04:09:52.836Z,3.10
2019-02-12T04:12:21.024Z,3.75
2019-02-12T04:14:49.222Z,1.90
2019-02-12T04:17:17.419Z,1.10
2019-02-12T04:19:45.595Z,0.80
2019-02-12T04:22:22.321Z,1.02
2019-02-12T04:24:43.712Z,3.90
2019-02-12T04:27:11.922Z,2.65
2019-02-12T04:29:40.119Z,0.90
2019-02-12T04:32:08.296Z,1.12
2019-02-12T04:34:36.525Z,1.47
2019-02-12T04:37:04.702Z,0.80
2019-02-12T04:39:32.901Z,1.77
2019-02-12T04:42:01.078Z,1.55
2019-02-12T04:44:29.298Z,1.20
2019-02-12T04:46:57.478Z,1.05
2019-02-12T04:49:25.702Z,0.70
2019-02-12T04:51:53.909Z,2.87
2019-02-12T04:54:22.110Z,1.10
2019-02-12T04:56:50.330Z,1.00
2019-02-12T04:59:18.504Z,1.07
2019-02-12T05:01:46.711Z,1.00
2019-02-12T05:04:14.905Z,1.00
2019-02-12T05:06:43.097Z,1.65
2019-02-12T05:09:13.661Z,1.42
2019-02-12T05:11:44.772Z,1.02
2019-02-12T05:14:13.003Z,0.90
2019-02-12T05:16:41.199Z,0.70
2019-02-12T05:19:09.379Z,0.80
2019-02-12T05:21:37.573Z,0.85
2019-02-12T05:24:05.804Z,1.15
2019-02-12T05:26:33.986Z,2.65
2019-02-12T05:29:02.175Z,1.57
2019-02-12T05:31:30.375Z,2.42
2019-02-12T05:33:58.567Z,1.42
2019-02-12T05:36:26.780Z,1.15
2019-02-12T05:38:55.045Z,2.17
2019-02-12T05:41:23.260Z,1.27
2019-02-12T05:43:51.423Z,1.72
2019-02-12T05:46:19.648Z,0.90
2019-02-12T05:48:47.840Z,1.00
2019-02-12T05:51:16.031Z,1.17
2019-02-12T05:53:44.243Z,2.05
2019-02-12T05:56:12.442Z,2.33
2019-02-12T05:58:40.653Z,1.75
2019-02-12T06:01:08.844Z,1.00
2019-02-12T06:03:37.027Z,1.10
2019-02-12T06:06:05.246Z,1.12
2019-02-12T06:08:33.433Z,1.27
2019-02-12T06:11:01.659Z,1.40
2019-02-12T06:13:29.844Z,2.30
2019-02-12T06:15:58.078Z,3.45
2019-02-12T06:18:26.250Z,5.85
2019-02-12T06:20:54.486Z,1.55
2019-02-12T06:23:22.674Z,1.98
2019-02-12T06:25:50.873Z,1.05
2019-02-12T06:28:19.075Z,0.80
2019-02-12T06:30:47.280Z,4.05
2019-02-12T06:33:15.462Z,1.45
2019-02-12T06:35:43.650Z,1.87
2019-02-12T06:38:12.014Z,2.67
2019-02-12T06:40:40.197Z,1.87
2019-02-12T06:43:08.461Z,3.15
2019-02-12T06:45:36.651Z,1.00
2019-02-12T06:48:04.830Z,1.60
2019-02-12T06:50:33.035Z,3.33
2019-02-12T06:53:01.244Z,1.30
2019-02-12T06:55:29.420Z,2.05
2019-02-12T06:57:57.622Z,2.12
2019-02-12T07:00:25.797Z,2.83
2019-02-12T07:03:13.988Z,2.17
2019-02-12T07:06:00.590Z,4.03
2019-02-12T07:08:40.780Z,3.70
2019-02-12T07:11:27.211Z,1.12
2019-02-12T07:14:10.215Z,2.90
2019-02-12T07:17:13.747Z,0.80
2019-02-12T07:19:47.700Z,1.75
2019-02-12T07:22:47.822Z,3.47
2019-02-12T07:25:25.076Z,1.10
2019-02-12T07:28:08.424Z,1.55
2019-02-12T07:31:08.792Z,1.42
2019-02-12T07:33:55.255Z,0.95
2019-02-12T07:36:40.749Z,0.90
2019-02-12T07:39:38.526Z,1.00
2019-02-12T07:42:31.218Z,1.12
2019-02-12T07:45:02.671Z,1.00
2019-02-12T07:47:50.380Z,3.10
2019-02-12T07:50:30.503Z,1.42
2019-02-12T07:53:10.939Z,4.00
2019-02-12T07:55:58.649Z,2.87
2019-02-12T07:58:46.497Z,3.08
2019-02-12T08:01:23.681Z,0.90
2019-02-12T08:04:03.655Z,1.55
2019-02-12T08:06:54.271Z,2.17
2019-02-12T08:10:00.749Z,4.00
2019-02-12T08:12:41.098Z,1.02
2019-02-12T08:15:15.305Z,1.65
2019-02-12T08:18:04.850Z,1.62
2019-02-12T08:20:55.778Z,4.15
2019-02-12T08:23:41.255Z,4.60
2019-02-12T08:26:17.627Z,1.65
2019-02-12T08:29:10.261Z,2.55
2019-02-12T08:31:47.275Z,1.60
2019-02-12T08:34:24.277Z,1.15
2019-02-12T08:36:55.726Z,0.98
2019-02-12T08:39:33.087Z,1.55
2019-02-12T08:42:15.911Z,1.42
2019-02-12T08:44:50.089Z,2.55
2019-02-12T08:47:40.111Z,0.85
2019-02-12T08:50:23.168Z,1.47
2019-02-12T08:53:00.425Z,2.10
2019-02-12T08:55:49.726Z,3.33
2019-02-12T08:58:24.149Z,1.85
2019-02-12T09:00:58.583Z,1.35
2019-02-12T09:03:42.015Z,1.55
2019-02-12T09:06:13.480Z,2.75
2019-02-12T09:08:50.443Z,1.42
2019-02-12T09:11:36.916Z,2.75
2019-02-12T09:14:13.627Z,1.00
2019-02-12T09:17:06.302Z,2.58
2019-02-12T09:19:55.637Z,5.08
2019-02-12T09:22:38.970Z,1.17
2019-02-12T09:25:10.449Z,1.15
2019-02-12T09:28:02.935Z,2.83
2019-02-12T09:30:49.453Z,1.05
2019-02-12T09:33:46.502Z,2.67
2019-02-12T09:36:52.765Z,1.65
2019-02-12T09:39:26.979Z,1.92
2019-02-12T09:42:09.756Z,1.60
2019-02-12T09:44:57.990Z,1.47
2019-02-12T09:47:46.492Z,4.30
2019-02-12T09:50:32.452Z,1.45
2019-02-12T09:53:26.342Z,3.08
2019-02-12T09:56:26.755Z,2.52
2019-02-12T09:59:09.959Z,1.50
2019-02-12T10:01:44.064Z,1.70
2019-02-12T10:04:18.188Z,2.25
2019-02-12T10:06:49.644Z,2.50
2019-02-12T10:09:33.284Z,3.80
2019-02-12T10:12:07.737Z,2.25
2019-02-12T10:14:42.020Z,1.30
2019-02-12T10:17:16.124Z,1.75
2019-02-12T10:20:02.577Z,1.40
2019-02-12T10:22:43.132Z,1.10
2019-02-12T10:25:14.724Z,3.17
2019-02-12T10:28:02.732Z,1.95
2019-02-12T10:30:36.707Z,5.35
2019-02-12T10:33:04.928Z,2.30
2019-02-12T10:35:33.139Z,2.25
2019-02-12T10:38:01.575Z,2.02
2019-02-12T10:40:29.740Z,1.15
2019-02-12T10:42:57.961Z,1.95
2019-02-12T10:45:26.187Z,3.17
2019-02-12T10:47:54.397Z,4.22
2019-02-12T10:50:22.581Z,3.12
2019-02-12T10:52:50.928Z,1.72
2019-02-12T10:55:19.147Z,3.17
2019-02-12T10:57:47.339Z,1.65
2019-02-12T11:00:15.543Z,1.98
2019-02-12T11:02:43.754Z,2.12
2019-02-12T11:05:11.940Z,2.15
2019-02-12T11:07:40.168Z,2.10
2019-02-12T11:10:11.703Z,2.87
2019-02-12T11:12:39.913Z,1.90
2019-02-12T11:15:09.658Z,1.52
2019-02-12T11:17:38.087Z,2.25
2019-02-12T11:20:09.457Z,3.83
2019-02-12T11:22:37.866Z,3.40
2019-02-12T11:25:10.190Z,2.37
2019-02-12T11:27:38.396Z,2.02
2019-02-12T11:30:12.643Z,1.32
2019-02-12T11:32:40.838Z,3.58
2019-02-12T11:35:12.478Z,2.37
2019-02-12T11:37:40.685Z,1.92
2019-02-12T11:40:13.523Z,3.25
2019-02-12T11:42:41.777Z,1.65
2019-02-12T11:45:12.427Z,2.90
2019-02-12T11:47:40.718Z,1.57
2019-02-12T11:50:09.944Z,2.98
2019-02-12T11:52:38.166Z,2.50
2019-02-12T11:55:09.256Z,1.50
2019-02-12T11:57:37.469Z,2.27
2019-02-12T12:00:09.275Z,1.37
2019-02-12T12:02:42.097Z,3.77
2019-02-12T12:05:08.304Z,2.87
2019-02-12T12:07:36.514Z,1.98
2019-02-12T12:10:08.632Z,1.00
2019-02-12T12:12:36.835Z,3.83
2019-02-12T12:15:08.062Z,1.15
2019-02-12T12:17:36.268Z,5.08
2019-02-12T12:20:07.619Z,1.50
2019-02-12T12:22:35.812Z,1.82
2019-02-12T12:25:05.461Z,1.70
2019-02-12T12:27:33.673Z,2.95
2019-02-12T12:30:01.878Z,1.02
2019-02-12T12:32:30.054Z,1.30
2019-02-12T12:34:59.206Z,1.87
2019-02-12T12:37:27.542Z,2.30
2019-02-12T12:39:55.739Z,1.65
2019-02-12T12:42:23.924Z,1.77
2019-02-12T12:44:52.353Z,1.52
2019-02-12T12:47:20.588Z,2.05
2019-02-12T12:49:48.792Z,1.37
2019-02-12T12:52:16.996Z,1.00
2019-02-12T12:54:45.186Z,1.60
2019-02-12T12:57:13.367Z,2.37
2019-02-12T12:59:41.566Z,1.32
2019-02-12T13:02:09.750Z,1.60
2019-02-12T13:04:37.948Z,1.55
2019-02-12T13:07:06.138Z,1.60
2019-02-12T13:09:34.342Z,1.95
2019-02-12T13:12:02.593Z,1.67
2019-02-12T13:14:31.158Z,2.58
2019-02-12T13:16:59.385Z,1.98
2019-02-12T13:19:27.581Z,1.77
2019-02-12T13:21:55.797Z,1.72
2019-02-12T13:24:23.990Z,1.72
2019-02-12T13:26:52.184Z,0.95
2019-02-12T13:29:20.382Z,1.47
2019-02-12T13:31:48.615Z,2.05
2019-02-12T13:34:16.814Z,0.90
2019-02-12T13:36:45.004Z,1.22
2019-02-12T13:39:13.226Z,2.47
2019-02-12T13:41:41.430Z,2.90
2019-02-12T13:44:09.615Z,2.35
2019-02-12T13:46:37.823Z,2.98
2019-02-12T13:49:06.010Z,3.37
2019-02-12T13:51:34.209Z,1.50
2019-02-12T13:54:02.399Z,2.35
2019-02-12T13:56:30.599Z,1.22
2019-02-12T13:58:58.788Z,1.77
2019-02-12T14:01:27.018Z,1.85
2019-02-12T14:03:55.200Z,1.80
2019-02-12T14:06:23.406Z,0.90
2019-02-12T14:08:51.615Z,1.52
2019-02-12T14:11:19.814Z,1.57
2019-02-12T14:13:48.004Z,2.67
2019-02-12T14:16:16.213Z,3.47
2019-02-12T14:18:44.401Z,1.25
2019-02-12T14:21:12.629Z,0.90
2019-02-12T14:23:40.818Z,1.75
2019-02-12T14:26:09.024Z,2.08
2019-02-12T14:28:37.214Z,1.30
2019-02-12T14:31:05.414Z,1.55
2019-02-12T14:33:33.619Z,2.60
2019-02-12T14:36:01.817Z,1.75
2019-02-12T14:38:29.999Z,1.30
2019-02-12T14:40:58.209Z,1.72
2019-02-12T14:43:26.391Z,1.35
2019-02-12T14:45:54.589Z,2.00
2019-02-12T14:48:22.774Z,2.65
2019-02-12T14:50:50.998Z,1.17
2019-02-12T14:53:19.178Z,1.35
2019-02-12T14:55:47.410Z,1.62
2019-02-12T14:58:15.611Z,1.35
2019-02-12T15:00:43.804Z,1.65
2019-02-12T15:03:11.985Z,1.75
2019-02-12T15:05:40.206Z,2.35
2019-02-12T15:08:08.390Z,3.17
2019-02-12T15:10:36.590Z,1.75
2019-02-12T15:13:04.771Z,2.10
2019-02-12T15:15:32.957Z,1.50
2019-02-12T15:18:01.181Z,2.92
2019-02-12T15:20:29.371Z,1.47
2019-02-12T15:22:57.572Z,1.65
2019-02-12T15:25:25.756Z,3.92
2019-02-12T15:27:53.958Z,0.93
2019-02-12T15:30:22.130Z,2.25
2019-02-12T15:32:50.323Z,0.80
2019-02-12T15:35:18.522Z,1.57
2019-02-12T15:37:46.737Z,1.52
2019-02-12T15:40:17.518Z,1.65
2019-02-12T15:42:45.791Z,2.85
2019-02-12T15:45:24.476Z,1.00
2019-02-12T15:47:52.671Z,2.17
2019-02-12T15:50:20.856Z,1.10
2019-02-12T15:52:49.077Z,1.72
2019-02-12T15:55:17.254Z,1.42
2019-02-12T15:57:46.057Z,2.50
2019-02-12T16:00:18.604Z,0.93
2019-02-12T16:02:46.723Z,1.82
2019-02-12T16:05:14.978Z,1.55
2019-02-12T16:07:45.200Z,1.15
2019-02-12T16:10:19.609Z,1.30
2019-02-12T16:12:48.938Z,1.20
2019-02-12T16:15:21.160Z,4.28
2019-02-12T16:17:48.279Z,1.00
2019-02-12T16:20:16.541Z,1.98
2019-02-12T16:22:44.760Z,2.05
2019-02-12T16:25:15.373Z,3.70
2019-02-12T16:27:43.772Z,2.05
2019-02-12T16:30:22.386Z,2.27
2019-02-12T16:32:50.582Z,2.10
2019-02-12T16:35:18.840Z,2.40
2019-02-12T16:37:47.028Z,1.92
2019-02-12T16:40:16.648Z,1.67
2019-02-12T16:42:44.842Z,3.50
2019-02-12T16:45:22.079Z,1.52
2019-02-12T16:47:50.275Z,1.17
2019-02-12T16:50:18.557Z,1.80
2019-02-12T16:52:46.800Z,1.47
2019-02-12T16:55:14.999Z,3.92
2019-02-12T16:57:43.235Z,3.35
2019-02-12T17:00:13.882Z,1.55
2019-02-12T17:02:42.083Z,3.92
2019-02-12T17:05:12.005Z,1.65
2019-02-12T17:07:40.221Z,1.80
2019-02-12T17:10:10.046Z,1.82
2019-02-12T17:12:38.238Z,2.83
2019-02-12T17:15:11.126Z,2.70
2019-02-12T17:17:39.328Z,1.50
2019-02-12T17:20:10.850Z,1.95
2019-02-12T17:22:39.059Z,2.20
2019-02-12T17:25:09.586Z,3.72
2019-02-12T17:27:37.810Z,1.90
2019-02-12T17:30:11.755Z,1.35
2019-02-12T17:32:40.328Z,3.72
2019-02-12T17:35:09.248Z,2.27
2019-02-12T17:37:37.445Z,4.17
2019-02-12T17:40:08.855Z,2.30
2019-02-12T17:42:37.040Z,2.45
2019-02-12T17:45:11.225Z,2.70
2019-02-12T17:47:39.407Z,1.42
2019-02-12T17:50:10.313Z,1.70
2019-02-12T17:52:38.515Z,2.10
2019-02-12T17:55:07.970Z,2.10
2019-02-12T17:57:36.154Z,1.47
2019-02-12T18:00:11.644Z,1.50
2019-02-12T18:02:41.576Z,2.20
2019-02-12T18:05:09.898Z,2.35
2019-02-12T18:07:38.091Z,5.25
2019-02-12T18:10:08.712Z,2.00
2019-02-12T18:12:36.888Z,2.47
2019-02-12T18:15:07.724Z,3.77
2019-02-12T18:17:35.905Z,1.47
2019-02-12T18:20:05.842Z,3.33
2019-02-12T18:22:34.030Z,4.15
2019-02-12T18:25:02.266Z,3.30
2019-02-12T18:27:30.448Z,4.15
2019-02-12T18:29:58.655Z,5.05
2019-02-12T18:32:26.893Z,3.15
2019-02-12T18:34:55.076Z,3.50
2019-02-12T18:37:23.256Z,4.33
2019-02-12T18:39:51.459Z,4.20
2019-02-12T18:42:19.897Z,3.60
2019-02-12T18:44:48.058Z,4.05
2019-02-12T18:47:16.250Z,3.47
2019-02-12T18:49:44.445Z,4.90
2019-02-12T18:52:12.650Z,3.35
2019-02-12T18:54:40.853Z,4.78
2019-02-12T18:57:09.058Z,4.55
2019-02-12T18:59:37.351Z,5.75
2019-02-12T19:02:05.573Z,5.70
2019-02-12T19:04:33.809Z,4.30
2019-02-12T19:07:02.004Z,4.92
2019-02-12T19:09:30.194Z,4.05
2019-02-12T19:11:58.382Z,5.00
2019-02-12T19:14:26.738Z,5.25
2019-02-12T19:16:54.977Z,7.08
2019-02-12T19:19:23.197Z,5.55
2019-02-12T19:21:51.474Z,5.22
2019-02-12T19:24:19.660Z,5.35
2019-02-12T19:26:49.878Z,4.85
2019-02-12T19:29:17.785Z,6.12
2019-02-12T19:31:45.991Z,6.37
2019-02-12T19:34:14.171Z,5.95
2019-02-12T19:36:42.383Z,5.78
2019-02-12T19:39:10.593Z,9.85
2019-02-12T19:41:38.812Z,5.65
2019-02-12T19:44:07.007Z,7.35
2019-02-12T19:46:35.209Z,5.90
2019-02-12T19:49:03.400Z,5.35
2019-02-12T19:51:31.600Z,8.93
2019-02-12T19:53:59.861Z,6.58
2019-02-12T19:56:28.064Z,7.92
2019-02-12T19:58:56.287Z,10.93
2019-02-12T20:01:24.487Z,8.15
2019-02-12T20:03:52.673Z,8.38
2019-02-12T20:06:20.865Z,6.53
2019-02-12T20:08:49.071Z,7.65
2019-02-12T20:11:17.269Z,5.65
2019-02-12T20:13:45.467Z,6.53
2019-02-12T20:16:13.699Z,7.15
2019-02-12T20:18:42.086Z,5.33
2019-02-12T20:21:10.265Z,5.50
2019-02-12T20:23:38.484Z,5.97
2019-02-12T20:26:06.670Z,7.17
2019-02-12T20:28:34.896Z,9.90
2019-02-12T20:31:03.123Z,6.33
2019-02-12T20:33:31.334Z,5.92
2019-02-12T20:35:59.523Z,5.83
2019-02-12T20:38:27.739Z,7.20
2019-02-12T20:40:55.954Z,7.22
2019-02-12T20:43:24.208Z,11.50
2019-02-12T20:45:52.372Z,9.08
2019-02-12T20:48:20.582Z,7.80
2019-02-12T20:50:48.788Z,8.73
2019-02-12T20:53:16.981Z,8.10
2019-02-12T20:55:45.173Z,9.80
2019-02-12T20:58:13.409Z,7.30
2019-02-12T21:00:41.621Z,10.30
2019-02-12T21:03:11.130Z,8.18
2019-02-12T21:05:39.401Z,11.57
2019-02-12T21:08:07.611Z,10.58
2019-02-12T21:10:35.796Z,9.13
2019-02-12T21:13:04.002Z,7.40
2019-02-12T21:15:32.261Z,10.15
2019-02-12T21:18:00.479Z,11.00
2019-02-12T21:20:28.676Z,10.98
2019-02-12T21:22:57.287Z,8.48
2019-02-12T21:25:25.487Z,7.85
2019-02-12T21:27:53.767Z,10.43
2019-02-12T21:30:30.157Z,9.15
2019-02-12T21:32:58.350Z,12.80
2019-02-12T21:35:26.566Z,13.18
2019-02-12T21:37:54.779Z,10.60
2019-02-12T21:40:24.630Z,9.65
2019-02-12T21:42:52.812Z,9.30
2019-02-12T21:45:21.019Z,12.45
2019-02-12T21:47:49.232Z,12.37
2019-02-12T21:50:17.440Z,12.63
2019-02-12T21:52:45.615Z,7.62
2019-02-12T21:55:19.242Z,11.12
2019-02-12T21:57:47.417Z,8.70
2019-02-12T22:00:20.142Z,8.75
2019-02-12T22:02:48.328Z,12.75
2019-02-12T22:05:17.183Z,13.65
2019-02-12T22:07:45.370Z,11.40
2019-02-12T22:10:28.363Z,14.07
2019-02-12T22:12:56.575Z,16.57
2019-02-12T22:15:24.777Z,10.10
2019-02-12T22:17:52.974Z,13.53
2019-02-12T22:20:22.639Z,10.95
2019-02-12T22:22:50.856Z,12.60
2019-02-12T22:25:19.056Z,12.43
2019-02-12T22:27:47.249Z,11.10
2019-02-12T22:30:18.253Z,15.03
2019-02-12T22:32:46.510Z,7.60
2019-02-12T22:35:14.797Z,9.75
2019-02-12T22:37:42.990Z,9.83
2019-02-12T22:40:15.353Z,10.28
2019-02-12T22:42:43.567Z,13.32
2019-02-12T22:45:25.057Z,13.48
2019-02-12T22:47:53.248Z,13.30
2019-02-12T22:50:21.466Z,15.30
2019-02-12T22:52:49.666Z,14.93
2019-02-12T22:55:17.883Z,13.88
2019-02-12T22:57:49.168Z,20.20
2019-02-12T23:00:26.907Z,13.30
2019-02-12T23:02:55.124Z,8.78
2019-02-12T23:05:23.317Z,16.30
2019-02-12T23:07:51.524Z,12.33
2019-02-12T23:10:19.751Z,15.30
2019-02-12T23:12:47.982Z,10.88
2019-02-12T23:15:16.190Z,12.05
2019-02-12T23:17:44.390Z,13.25
2019-02-12T23:20:12.582Z,14.60
2019-02-12T23:22:40.789Z,15.25
2019-02-12T23:25:08.977Z,11.12
2019-02-12T23:27:37.188Z,15.00
2019-02-12T23:30:08.387Z,14.93
2019-02-12T23:32:36.618Z,11.63
2019-02-12T23:35:05.677Z,14.33
2019-02-12T23:37:33.879Z,13.85
2019-02-12T23:40:02.064Z,14.95
2019-02-12T23:42:30.299Z,17.65
2019-02-12T23:44:58.517Z,13.22
2019-02-12T23:47:26.734Z,11.90
2019-02-12T23:49:54.928Z,12.13
2019-02-12T23:52:23.204Z,13.70
2019-02-12T23:54:51.414Z,15.90
2019-02-12T23:57:19.624Z,15.58
2019-02-12T23:59:47.839Z,15.05
